createdAt,value
2023-01-25T00:02:20.034Z,37.47
2023-01-25T00:04:48.382Z,34.70
2023-01-25T00:07:16.294Z,28.43
2023-01-25T00:09:44.439Z,28.40
2023-01-25T00:12:13.254Z,29.97
2023-01-25T00:14:43.152Z,32.63
2023-01-25T00:17:12.583Z,28.77
2023-01-25T00:19:40.610Z,28.17
2023-01-25T00:22:08.747Z,31.93
2023-01-25T00:24:37.561Z,30.53
2023-01-25T00:27:05.529Z,29.70
2023-01-25T00:29:34.237Z,30.60
2023-01-25T00:32:38.526Z,31.50
2023-01-25T00:35:12.638Z,25.23
2023-01-25T00:37:44.483Z,24.60
2023-01-25T00:40:14.499Z,27.07
2023-01-25T00:42:43.814Z,30.50
2023-01-25T00:45:13.602Z,28.20
2023-01-25T00:47:43.665Z,25.50
2023-01-25T00:50:12.669Z,28.80
2023-01-25T00:52:42.039Z,24.70
2023-01-25T00:55:10.909Z,27.30
2023-01-25T00:57:38.945Z,29.80
2023-01-25T01:00:08.456Z,30.60
2023-01-25T01:02:36.768Z,24.37
2023-01-25T01:05:07.372Z,28.10
2023-01-25T01:07:36.135Z,20.67
2023-01-25T01:10:04.947Z,25.07
2023-01-25T01:12:33.263Z,32.50
2023-01-25T01:15:01.595Z,32.30
2023-01-25T01:17:29.771Z,24.93
2023-01-25T01:19:57.770Z,26.07
2023-01-25T01:22:27.561Z,27.40
2023-01-25T01:24:55.571Z,27.43
2023-01-25T01:27:24.171Z,29.37
2023-01-25T01:29:52.425Z,27.60
2023-01-25T01:32:21.303Z,33.03
2023-01-25T01:34:52.059Z,32.53
2023-01-25T01:37:20.609Z,31.00
2023-01-25T01:39:50.021Z,32.13
2023-01-25T01:42:18.090Z,19.83
2023-01-25T01:44:49.132Z,26.97
2023-01-25T01:47:23.228Z,21.93
2023-01-25T01:49:58.954Z,25.23
2023-01-25T01:52:34.668Z,23.53
2023-01-25T01:55:12.811Z,22.93
2023-01-25T01:57:49.301Z,24.93
2023-01-25T02:00:22.378Z,24.77
2023-01-25T02:02:52.595Z,24.67
2023-01-25T02:05:27.306Z,22.93
2023-01-25T02:07:57.050Z,23.80
2023-01-25T02:10:29.572Z,21.77
2023-01-25T02:12:59.398Z,23.40
2023-01-25T02:15:30.053Z,22.97
2023-01-25T02:17:58.844Z,25.70
2023-01-25T02:20:37.530Z,22.90
2023-01-25T02:23:12.715Z,21.27
2023-01-25T02:25:44.957Z,20.80
2023-01-25T02:28:17.750Z,19.77
2023-01-25T02:30:47.048Z,25.47
2023-01-25T02:33:18.464Z,23.80
2023-01-25T02:35:50.334Z,25.33
2023-01-25T02:38:21.469Z,20.13
2023-01-25T02:41:02.473Z,31.27
2023-01-25T02:43:35.562Z,29.20
2023-01-25T02:46:15.372Z,29.93
2023-01-25T02:48:46.601Z,23.10
2023-01-25T02:51:15.291Z,26.53
2023-01-25T02:53:43.336Z,28.57
2023-01-25T02:56:12.305Z,24.33
2023-01-25T02:58:39.930Z,28.60
2023-01-25T03:01:07.637Z,27.50
2023-01-25T03:03:35.362Z,25.13
2023-01-25T03:06:03.149Z,27.27
2023-01-25T03:08:31.080Z,23.80
2023-01-25T03:10:59.567Z,25.97
2023-01-25T03:13:30.937Z,23.47
2023-01-25T03:16:01.435Z,28.87
2023-01-25T03:18:29.461Z,27.60
2023-01-25T03:20:57.328Z,24.93
2023-01-25T03:23:25.064Z,27.80
2023-01-25T03:25:54.311Z,27.27
2023-01-25T03:28:22.035Z,25.13
2023-01-25T03:30:55.112Z,20.70
2023-01-25T03:33:22.864Z,26.87
2023-01-25T03:35:53.279Z,25.23
2023-01-25T03:38:21.631Z,25.53
2023-01-25T03:40:49.366Z,27.10
2023-01-25T03:43:17.480Z,24.83
2023-01-25T03:45:53.684Z,25.10
2023-01-25T03:48:23.555Z,26.57
2023-01-25T03:50:52.687Z,28.17
2023-01-25T03:53:29.163Z,29.53
2023-01-25T03:56:04.519Z,27.07
2023-01-25T03:58:32.727Z,28.57
2023-01-25T04:01:01.899Z,29.00
2023-01-25T04:03:31.628Z,28.97
2023-01-25T04:06:01.178Z,28.03
2023-01-25T04:08:30.789Z,21.13
2023-01-25T04:11:03.108Z,28.83
2023-01-25T04:13:30.748Z,23.63
2023-01-25T04:15:58.743Z,28.67
2023-01-25T04:18:47.973Z,23.87
2023-01-25T04:21:15.886Z,31.03
2023-01-25T04:23:44.099Z,31.57
2023-01-25T04:26:12.646Z,30.40
2023-01-25T04:28:41.244Z,31.67
2023-01-25T04:31:09.012Z,35.63
2023-01-25T04:33:41.003Z,33.83
2023-01-25T04:36:11.198Z,35.70
2023-01-25T04:38:39.194Z,32.43
2023-01-25T04:41:07.265Z,27.57
2023-01-25T04:43:35.378Z,37.60
2023-01-25T04:46:08.027Z,32.77
2023-01-25T04:48:35.765Z,23.40
2023-01-25T04:51:07.005Z,32.17
2023-01-25T04:53:36.919Z,25.87
2023-01-25T04:56:07.779Z,25.83
2023-01-25T04:58:44.451Z,25.07
2023-01-25T05:01:13.331Z,25.90
2023-01-25T05:03:41.218Z,27.20
2023-01-25T05:06:17.037Z,24.53
2023-01-25T05:08:46.499Z,25.37
2023-01-25T05:11:14.330Z,21.20
2023-01-25T05:13:51.915Z,20.13
2023-01-25T05:16:25.605Z,22.07
2023-01-25T05:18:53.281Z,22.00
2023-01-25T05:21:44.638Z,24.73
2023-01-25T05:24:15.849Z,25.67
2023-01-25T05:27:03.650Z,25.90
2023-01-25T05:29:49.604Z,21.47
2023-01-25T05:32:20.196Z,22.37
2023-01-25T05:34:48.851Z,19.73
2023-01-25T05:37:19.766Z,20.57
2023-01-25T05:39:51.339Z,22.73
2023-01-25T05:42:20.177Z,26.07
2023-01-25T05:44:48.594Z,25.70
2023-01-25T05:47:18.614Z,27.53
2023-01-25T05:49:46.310Z,21.17
2023-01-25T05:52:21.683Z,24.80
2023-01-25T05:54:51.096Z,26.77
2023-01-25T05:57:18.969Z,23.80
2023-01-25T05:59:46.817Z,26.20
2023-01-25T06:02:19.075Z,19.90
2023-01-25T06:04:47.050Z,22.47
2023-01-25T06:07:15.332Z,25.40
2023-01-25T06:09:43.447Z,27.23
2023-01-25T06:12:12.520Z,23.53
2023-01-25T06:14:40.196Z,27.57
2023-01-25T06:17:08.038Z,20.53
2023-01-25T06:19:57.063Z,17.33
2023-01-25T06:22:35.443Z,20.37
2023-01-25T06:25:03.058Z,19.63
2023-01-25T06:27:32.395Z,19.73
2023-01-25T06:30:00.122Z,23.93
2023-01-25T06:32:33.107Z,23.10
2023-01-25T06:35:00.686Z,22.33
2023-01-25T06:37:28.465Z,17.17
2023-01-25T06:39:56.058Z,18.90
2023-01-25T06:42:25.257Z,23.43
2023-01-25T06:44:54.222Z,27.13
2023-01-25T06:47:21.879Z,19.20
2023-01-25T06:49:49.506Z,24.90
2023-01-25T06:52:17.103Z,20.67
2023-01-25T06:54:44.691Z,21.10
2023-01-25T06:57:12.898Z,19.07
2023-01-25T06:59:40.523Z,19.70
2023-01-25T07:02:11.396Z,16.80
2023-01-25T07:04:38.996Z,20.90
2023-01-25T07:07:08.672Z,20.03
2023-01-25T07:09:36.598Z,16.93
2023-01-25T07:12:05.399Z,19.50
2023-01-25T07:14:33.255Z,19.27
2023-01-25T07:17:02.932Z,19.83
2023-01-25T07:19:32.793Z,20.67
2023-01-25T07:22:00.433Z,20.80
2023-01-25T07:24:29.628Z,19.77
2023-01-25T07:26:57.245Z,23.17
2023-01-25T07:29:25.014Z,16.00
2023-01-25T07:31:52.718Z,16.83
2023-01-25T07:34:20.481Z,17.27
2023-01-25T07:36:49.538Z,18.20
2023-01-25T07:39:17.260Z,18.93
2023-01-25T07:41:44.870Z,20.67
2023-01-25T07:44:14.295Z,22.90
2023-01-25T07:46:47.924Z,17.23
2023-01-25T07:49:15.780Z,17.57
2023-01-25T07:51:43.378Z,16.00
2023-01-25T07:54:12.982Z,18.13
2023-01-25T07:56:40.917Z,17.60
2023-01-25T07:59:10.494Z,16.90
2023-01-25T08:01:38.712Z,17.97
2023-01-25T08:04:06.618Z,15.43
2023-01-25T08:06:38.965Z,17.90
2023-01-25T08:09:09.672Z,15.33
2023-01-25T08:11:38.759Z,18.83
2023-01-25T08:14:06.374Z,16.90
2023-01-25T08:16:34.257Z,20.40
2023-01-25T08:19:03.878Z,17.10
2023-01-25T08:21:33.966Z,16.50
2023-01-25T08:24:03.527Z,19.57
2023-01-25T08:26:31.159Z,16.70
2023-01-25T08:29:00.202Z,15.60
2023-01-25T08:31:30.118Z,14.47
2023-01-25T08:33:58.723Z,18.87
2023-01-25T08:36:27.893Z,16.63
2023-01-25T08:38:58.452Z,17.70
2023-01-25T08:41:27.088Z,18.57
2023-01-25T08:43:56.159Z,18.47
2023-01-25T08:46:30.151Z,18.63
2023-01-25T08:48:59.179Z,21.30
2023-01-25T08:51:27.468Z,20.50
2023-01-25T08:53:55.555Z,20.63
2023-01-25T08:56:23.248Z,16.30
2023-01-25T08:58:51.571Z,25.53
2023-01-25T09:01:21.032Z,21.80
2023-01-25T09:03:51.718Z,18.70
2023-01-25T09:06:20.773Z,20.03
2023-01-25T09:08:49.011Z,20.17
2023-01-25T09:11:18.268Z,20.70
2023-01-25T09:13:46.071Z,23.53
2023-01-25T09:16:16.304Z,25.90
2023-01-25T09:18:45.562Z,16.57
2023-01-25T09:21:16.020Z,18.90
2023-01-25T09:23:51.338Z,19.67
2023-01-25T09:26:25.639Z,15.70
2023-01-25T09:28:55.101Z,17.60
2023-01-25T09:31:24.820Z,21.13
2023-01-25T09:34:02.964Z,18.07
2023-01-25T09:36:31.933Z,13.47
2023-01-25T09:38:59.880Z,19.97
2023-01-25T09:42:03.430Z,19.03
2023-01-25T09:44:52.364Z,21.00
2023-01-25T09:47:26.998Z,23.30
2023-01-25T09:50:20.665Z,25.00
2023-01-25T09:53:06.655Z,18.50
2023-01-25T09:55:34.969Z,22.60
2023-01-25T09:58:04.109Z,17.53
2023-01-25T10:00:37.041Z,19.30
2023-01-25T10:03:12.142Z,19.13
2023-01-25T10:05:45.848Z,24.73
2023-01-25T10:08:25.815Z,16.20
2023-01-25T10:10:59.708Z,14.30
2023-01-25T10:13:31.782Z,21.87
2023-01-25T10:16:06.483Z,21.63
2023-01-25T10:18:41.284Z,20.90
2023-01-25T10:21:14.054Z,20.00
2023-01-25T10:24:11.373Z,22.37
2023-01-25T10:26:43.943Z,24.13
2023-01-25T10:29:16.467Z,19.03
2023-01-25T10:31:49.051Z,29.37
2023-01-25T10:34:21.103Z,24.93
2023-01-25T10:36:53.348Z,26.37
2023-01-25T10:39:22.859Z,32.30
2023-01-25T10:41:55.854Z,29.97
2023-01-25T10:44:26.732Z,24.90
2023-01-25T10:47:00.662Z,28.23
2023-01-25T10:49:41.087Z,35.93
2023-01-25T10:52:15.419Z,28.63
2023-01-25T10:54:44.613Z,33.20
2023-01-25T10:57:16.840Z,25.63
2023-01-25T10:59:47.858Z,32.07
2023-01-25T11:02:38.033Z,30.70
2023-01-25T11:05:31.104Z,29.53
2023-01-25T11:07:59.926Z,29.57
2023-01-25T11:10:32.046Z,28.43
2023-01-25T11:13:23.079Z,32.17
2023-01-25T11:15:52.737Z,30.53
2023-01-25T11:18:24.785Z,27.87
2023-01-25T11:21:07.822Z,35.60
2023-01-25T11:23:35.637Z,29.70
2023-01-25T11:26:15.139Z,28.27
2023-01-25T11:28:44.373Z,28.00
2023-01-25T11:31:14.214Z,28.07
2023-01-25T11:33:42.333Z,26.23
2023-01-25T11:36:23.572Z,23.87
2023-01-25T11:39:09.254Z,24.20
2023-01-25T11:41:53.957Z,22.67
2023-01-25T11:44:45.047Z,25.87
2023-01-25T11:47:23.341Z,34.93
2023-01-25T11:50:00.974Z,21.90
2023-01-25T11:52:37.690Z,34.47
2023-01-25T11:55:20.429Z,31.63
2023-01-25T11:58:00.983Z,22.30
2023-01-25T12:00:42.685Z,37.50
2023-01-25T12:03:28.417Z,34.83
2023-01-25T12:06:03.745Z,38.40
2023-01-25T12:09:03.860Z,39.50
2023-01-25T12:11:47.495Z,33.37
2023-01-25T12:14:32.077Z,33.17
2023-01-25T12:17:22.968Z,39.67
2023-01-25T12:20:31.444Z,40.13
2023-01-25T12:23:22.033Z,29.37
2023-01-25T12:26:00.914Z,36.77
2023-01-25T12:28:34.171Z,32.87
2023-01-25T12:31:08.805Z,41.07
2023-01-25T12:33:41.861Z,31.83
2023-01-25T12:36:15.731Z,41.17
2023-01-25T12:38:49.194Z,36.53
2023-01-25T12:41:27.488Z,35.50
2023-01-25T12:44:02.280Z,30.10
2023-01-25T12:46:38.374Z,28.13
2023-01-25T12:49:16.485Z,33.23
2023-01-25T12:51:46.233Z,49.83
2023-01-25T12:54:20.528Z,38.17
2023-01-25T12:56:58.243Z,46.37
2023-01-25T12:59:34.628Z,42.13
2023-01-25T13:02:19.397Z,35.33
2023-01-25T13:05:00.594Z,47.40
2023-01-25T13:07:34.704Z,44.00
2023-01-25T13:10:06.757Z,45.80
2023-01-25T13:12:53.150Z,44.90
2023-01-25T13:15:40.820Z,45.33
2023-01-25T13:18:39.445Z,69.20
2023-01-25T13:21:12.327Z,42.73
2023-01-25T13:23:47.009Z,35.70
2023-01-25T13:26:37.875Z,40.63
2023-01-25T13:29:05.545Z,42.00
2023-01-25T13:31:51.808Z,55.93
2023-01-25T13:34:52.209Z,48.77
2023-01-25T13:37:23.619Z,50.63
2023-01-25T13:39:53.253Z,43.53
2023-01-25T13:42:23.642Z,47.23
2023-01-25T13:44:54.184Z,41.43
2023-01-25T13:47:23.938Z,40.53
2023-01-25T13:49:58.253Z,48.10
2023-01-25T13:52:28.182Z,46.53
2023-01-25T13:54:57.490Z,48.60
2023-01-25T13:57:27.127Z,45.80
2023-01-25T14:00:10.087Z,56.90
2023-01-25T14:02:40.688Z,53.13
2023-01-25T14:05:18.930Z,48.80
2023-01-25T14:07:48.730Z,45.47
2023-01-25T14:10:23.328Z,39.60
2023-01-25T14:12:52.607Z,48.33
2023-01-25T14:15:23.757Z,51.23
2023-01-25T14:18:14.586Z,49.83
2023-01-25T14:20:42.545Z,45.70
2023-01-25T14:23:24.657Z,46.63
2023-01-25T14:25:53.890Z,52.83
2023-01-25T14:28:22.648Z,47.40
2023-01-25T14:30:55.142Z,48.40
2023-01-25T14:33:26.222Z,51.93
2023-01-25T14:36:00.032Z,42.27
2023-01-25T14:38:35.185Z,49.10
2023-01-25T14:41:08.960Z,34.30
2023-01-25T14:43:38.319Z,40.57
2023-01-25T14:46:26.724Z,40.87
2023-01-25T14:49:17.801Z,41.77
2023-01-25T14:51:47.761Z,41.07
2023-01-25T14:54:20.807Z,34.67
2023-01-25T14:56:51.583Z,41.77
2023-01-25T14:59:26.975Z,34.77
2023-01-25T15:01:57.027Z,32.27
2023-01-25T15:04:24.896Z,30.80
2023-01-25T15:06:54.637Z,32.60
2023-01-25T15:09:42.277Z,31.40
2023-01-25T15:12:34.444Z,36.63
2023-01-25T15:15:02.768Z,38.23
2023-01-25T15:17:41.294Z,39.93
2023-01-25T15:20:28.220Z,33.13
2023-01-25T15:22:57.426Z,39.43
2023-01-25T15:25:26.464Z,35.37
2023-01-25T15:27:54.671Z,38.00
2023-01-25T15:30:22.332Z,30.00
2023-01-25T15:32:50.425Z,40.60
2023-01-25T15:35:19.701Z,35.40
2023-01-25T15:37:49.265Z,34.07
2023-01-25T15:40:18.086Z,37.37
2023-01-25T15:42:47.283Z,33.83
2023-01-25T15:45:14.914Z,34.70
2023-01-25T15:47:42.579Z,29.93
2023-01-25T15:50:18.649Z,34.53
2023-01-25T15:52:46.419Z,35.60
2023-01-25T15:55:15.212Z,39.00
2023-01-25T15:57:44.575Z,31.87
2023-01-25T16:00:19.470Z,41.50
2023-01-25T16:02:47.252Z,64.00
2023-01-25T16:05:15.046Z,73.83
2023-01-25T16:07:45.175Z,44.90
2023-01-25T16:10:24.821Z,46.53
2023-01-25T16:12:52.613Z,56.00
2023-01-25T16:15:21.568Z,47.47
2023-01-25T16:17:49.192Z,51.80
2023-01-25T16:20:19.115Z,35.13
2023-01-25T16:22:47.279Z,37.87
2023-01-25T16:25:15.146Z,36.70
2023-01-25T16:27:42.813Z,37.57
2023-01-25T16:30:18.692Z,34.83
2023-01-25T16:32:50.017Z,34.63
2023-01-25T16:35:17.986Z,37.10
2023-01-25T16:37:45.922Z,41.03
2023-01-25T16:40:23.406Z,32.43
2023-01-25T16:42:51.441Z,26.77
2023-01-25T16:45:20.280Z,33.80
2023-01-25T16:47:49.366Z,38.10
2023-01-25T16:50:19.697Z,28.73
2023-01-25T16:52:49.903Z,32.80
2023-01-25T16:55:18.591Z,37.13
2023-01-25T16:57:50.843Z,32.33
2023-01-25T17:00:19.615Z,35.07
2023-01-25T17:02:58.717Z,35.30
2023-01-25T17:05:31.947Z,31.67
2023-01-25T17:07:59.739Z,33.10
2023-01-25T17:10:28.793Z,68.37
2023-01-25T17:12:56.416Z,74.20
2023-01-25T17:15:24.098Z,42.43
2023-01-25T17:17:51.758Z,116.03
2023-01-25T17:20:19.431Z,43.97
2023-01-25T17:22:51.032Z,141.40
2023-01-25T17:25:18.812Z,41.57
2023-01-25T17:27:47.041Z,48.27
2023-01-25T17:30:15.409Z,81.60
2023-01-25T17:32:43.025Z,42.87
2023-01-25T17:35:10.773Z,30.23
2023-01-25T17:37:41.041Z,33.37
2023-01-25T17:40:12.378Z,28.60
2023-01-25T17:42:40.313Z,29.53
2023-01-25T17:45:09.308Z,31.07
2023-01-25T17:47:37.185Z,32.80
2023-01-25T17:50:05.127Z,30.60
2023-01-25T17:52:32.760Z,39.00
2023-01-25T17:55:00.469Z,31.00
2023-01-25T17:57:31.555Z,37.13
2023-01-25T17:59:59.352Z,31.57
2023-01-25T18:02:27.041Z,32.03
2023-01-25T18:04:54.763Z,38.90
2023-01-25T18:07:22.420Z,31.67
2023-01-25T18:09:50.109Z,30.10
2023-01-25T18:12:20.526Z,32.97
2023-01-25T18:14:49.697Z,36.83
2023-01-25T18:17:17.362Z,31.33
2023-01-25T18:19:45.896Z,31.73
2023-01-25T18:22:14.681Z,28.40
2023-01-25T18:24:43.994Z,26.13
2023-01-25T18:27:19.688Z,24.20
2023-01-25T18:29:55.417Z,36.57
2023-01-25T18:32:23.076Z,25.73
2023-01-25T18:34:50.875Z,29.70
2023-01-25T18:37:21.698Z,27.53
2023-01-25T18:39:51.214Z,28.67
2023-01-25T18:42:20.068Z,26.30
2023-01-25T18:44:49.258Z,29.90
2023-01-25T18:47:18.938Z,30.23
2023-01-25T18:49:47.367Z,29.07
2023-01-25T18:52:16.548Z,25.90
2023-01-25T18:54:44.510Z,27.67
2023-01-25T18:57:13.193Z,28.10
2023-01-25T18:59:41.241Z,33.33
2023-01-25T19:02:12.510Z,31.77
2023-01-25T19:04:40.329Z,35.63
2023-01-25T19:07:08.420Z,39.30
2023-01-25T19:09:36.179Z,40.27
2023-01-25T19:12:03.949Z,39.97
2023-01-25T19:14:31.721Z,36.23
2023-01-25T19:16:59.433Z,39.83
2023-01-25T19:19:32.213Z,39.90
2023-01-25T19:22:01.544Z,29.87
2023-01-25T19:24:30.938Z,29.73
2023-01-25T19:26:59.459Z,36.13
2023-01-25T19:29:27.683Z,27.27
2023-01-25T19:31:55.612Z,28.70
2023-01-25T19:34:23.338Z,25.90
2023-01-25T19:36:53.865Z,31.03
2023-01-25T19:39:22.002Z,29.77
2023-01-25T19:41:52.495Z,27.70
2023-01-25T19:44:20.639Z,31.83
2023-01-25T19:46:49.061Z,22.40
2023-01-25T19:49:16.823Z,21.23
2023-01-25T19:51:48.852Z,23.00
2023-01-25T19:54:18.887Z,26.07
2023-01-25T19:56:48.459Z,22.57
2023-01-25T19:59:17.610Z,23.10
2023-01-25T20:01:46.229Z,24.40
2023-01-25T20:04:16.359Z,24.07
2023-01-25T20:06:44.880Z,22.57
2023-01-25T20:09:14.222Z,25.13
2023-01-25T20:11:43.597Z,25.10
2023-01-25T20:14:13.422Z,35.37
2023-01-25T20:16:41.807Z,34.60
2023-01-25T20:19:12.353Z,22.30
2023-01-25T20:21:40.263Z,22.13
2023-01-25T20:24:10.375Z,22.53
2023-01-25T20:26:43.052Z,21.30
2023-01-25T20:29:14.006Z,22.97
2023-01-25T20:31:44.546Z,26.33
2023-01-25T20:34:14.879Z,23.57
2023-01-25T20:36:44.416Z,37.20
2023-01-25T20:39:15.604Z,60.13
2023-01-25T20:41:44.275Z,36.30
2023-01-25T20:44:15.667Z,43.57
2023-01-25T20:46:44.486Z,45.67
2023-01-25T20:49:16.489Z,50.43
2023-01-25T20:51:45.793Z,35.53
2023-01-25T20:54:14.457Z,63.87
2023-01-25T20:56:43.169Z,48.50
2023-01-25T20:59:11.332Z,43.90
2023-01-25T21:01:41.154Z,22.33
2023-01-25T21:04:11.853Z,27.67
2023-01-25T21:06:40.391Z,47.13
2023-01-25T21:09:08.509Z,78.27
2023-01-25T21:11:36.838Z,43.77
2023-01-25T21:14:05.840Z,48.47
2023-01-25T21:16:35.416Z,35.80
2023-01-25T21:19:07.935Z,24.30
2023-01-25T21:21:38.480Z,55.40
2023-01-25T21:24:07.863Z,30.03
2023-01-25T21:26:38.612Z,52.67
2023-01-25T21:29:08.063Z,29.57
2023-01-25T21:31:38.319Z,24.00
2023-01-25T21:34:09.308Z,27.93
2023-01-25T21:36:37.368Z,29.43
2023-01-25T21:39:05.867Z,43.43
2023-01-25T21:41:34.617Z,30.27
2023-01-25T21:44:21.057Z,40.23
2023-01-25T21:47:16.254Z,30.90
2023-01-25T21:49:57.125Z,34.10
2023-01-25T21:52:25.633Z,22.23
2023-01-25T21:54:55.622Z,24.50
2023-01-25T21:57:24.369Z,27.70
2023-01-25T21:59:54.171Z,26.30
2023-01-25T22:02:22.630Z,26.20
2023-01-25T22:04:52.511Z,23.27
2023-01-25T22:07:20.866Z,25.30
2023-01-25T22:09:50.650Z,23.67
2023-01-25T22:12:19.057Z,24.47
2023-01-25T22:14:47.725Z,24.30
2023-01-25T22:17:16.227Z,25.33
2023-01-25T22:19:44.884Z,26.73
2023-01-25T22:22:14.558Z,22.90
2023-01-25T22:24:43.030Z,28.37
2023-01-25T22:27:38.456Z,26.73
2023-01-25T22:30:08.412Z,23.27
2023-01-25T22:32:37.068Z,29.03
2023-01-25T22:35:05.969Z,21.73
2023-01-25T22:37:38.296Z,27.10
2023-01-25T22:40:09.616Z,29.33
2023-01-25T22:42:41.026Z,33.13
2023-01-25T22:45:09.807Z,22.13
2023-01-25T22:47:38.294Z,27.70
2023-01-25T22:50:07.616Z,24.73
2023-01-25T22:52:37.055Z,17.53
2023-01-25T22:55:05.631Z,21.77
2023-01-25T22:57:34.037Z,25.27
2023-01-25T23:00:02.549Z,22.23
2023-01-25T23:02:31.010Z,21.67
2023-01-25T23:04:59.478Z,21.63
2023-01-25T23:07:27.538Z,25.73
2023-01-25T23:09:56.969Z,24.47
2023-01-25T23:12:25.148Z,23.37
2023-01-25T23:14:54.457Z,23.93
2023-01-25T23:17:42.456Z,25.47
2023-01-25T23:20:12.927Z,26.93
2023-01-25T23:22:41.612Z,23.43
2023-01-25T23:25:12.445Z,25.83
2023-01-25T23:27:42.009Z,23.20
2023-01-25T23:30:11.613Z,26.20
2023-01-25T23:32:40.055Z,25.37
2023-01-25T23:35:09.154Z,24.60
2023-01-25T23:37:38.944Z,27.40
2023-01-25T23:40:09.301Z,27.53
2023-01-25T23:42:39.839Z,27.20
2023-01-25T23:45:11.899Z,29.87
2023-01-25T23:47:40.644Z,32.80
2023-01-25T23:50:10.404Z,30.10
2023-01-25T23:52:39.619Z,34.13
2023-01-25T23:55:09.325Z,26.07
2023-01-25T23:57:39.775Z,28.60
